logo
Search for airport 
image banner adimage banner adimage banner ad
image banner ad

OMFJ - Fujairah / International

Located in Fujairah, United Arab Emirates

ICAO - OMFJ, IATA - FJR

Data provided by Airmate  

General information

Coordinates: N25°6'44" E56°19'27"
Elevation is 153 feet MSL.
 
View others Airports in Fujairah Emirate

Operational data

Special qualification required
Current time UTC:
Current local time:
Weather
METAR: OMFJ 241900Z 30008KT 8000 NSC 30/07 Q1006 A2973
TAF: TAF OMFJ 241700Z 2418/2600 29008KT 8000 NSC BECMG 2505/2507 08012KT BECMG 2514/2516 30006KT
View NOTAMs / SUP AIP / TFR affecting this airport [VIEW]
Communications frequencies: [VIEW]

Runways:

RWY identifierQFULength (ft)Width (ft)SurfaceLDA (ft)
11R112°10007148UNK
29L292°10007148UNK

Airport contact information

Address: Fujairah United Arab Emirates

Satellite view of OMFJ